Taylors Island, Maryland
Current Conditions -  °F | °C
As of 8:52 AM on Friday 19 Dec 2014 (Local Time) from KNHK Reporting Station
Broken Clouds Broken Clouds  
Wind Chill: 28°   Ceiling: 3300
Heat Index: 36°   Visibility: 10mi
Dew Point: 22°   Wind: 12mph
Humidity: 57%   Direction: 310°NW
Pressure: 30.16"   Gusts: NA
Location:  38.47°N, 76.3°W
Report Text: KNHK 191352Z 31010KT 10SM BKN033 BKN095 02/M06 A3016 RMK AO2 SLP213 T00221056
Loading
Personal Weather Stations






























Interactive Weather Map New forecast layout! Learn more

10-Day Weather Forecast

Advertisements
Track Severe Weather on mobile